sensor_id;sensor_type;location;lat;lon;timestamp;pressure;altitude;pressure_sealevel;temperature;humidity
37634;BME280;32048;49.902;22.508;2023-02-23T00:01:26;99010.66;;;-2.63;100.00
37634;BME280;32048;49.902;22.508;2023-02-23T00:03:57;99009.78;;;-2.65;100.00
37634;BME280;32048;49.902;22.508;2023-02-23T00:06:26;99005.50;;;-2.66;100.00
37634;BME280;32048;49.902;22.508;2023-02-23T00:08:54;99012.38;;;-2.64;100.00
37634;BME280;32048;49.902;22.508;2023-02-23T00:11:21;99012.38;;;-2.65;100.00
37634;BME280;32048;49.902;22.508;2023-02-23T00:13:49;99009.81;;;-2.64;100.00
37634;BME280;32048;49.902;22.508;2023-02-23T00:16:19;99004.63;;;-2.64;100.00
37634;BME280;32048;49.902;22.508;2023-02-23T00:18:51;99011.53;;;-2.64;100.00
37634;BME280;32048;49.902;22.508;2023-02-23T00:21:23;99011.50;;;-2.69;100.00
37634;BME280;32048;49.902;22.508;2023-02-23T00:23:58;99004.56;;;-2.75;100.00
37634;BME280;32048;49.902;22.508;2023-02-23T00:26:28;99009.75;;;-2.78;100.00
37634;BME280;32048;49.902;22.508;2023-02-23T00:29:02;99009.69;;;-2.84;100.00
37634;BME280;32048;49.902;22.508;2023-02-23T00:31:30;99015.69;;;-2.91;100.00
37634;BME280;32048;49.902;22.508;2023-02-23T00:34:00;99007.06;;;-2.90;100.00
37634;BME280;32048;49.902;22.508;2023-02-23T00:36:30;99010.53;;;-2.88;100.00
37634;BME280;32048;49.902;22.508;2023-02-23T00:38:59;99010.50;;;-2.89;100.00
37634;BME280;32048;49.902;22.508;2023-02-23T00:41:27;99007.03;;;-2.96;100.00
37634;BME280;32048;49.902;22.508;2023-02-23T00:43:56;99017.34;;;-3.02;100.00
37634;BME280;32048;49.902;22.508;2023-02-23T00:46:26;99010.41;;;-3.08;100.00
37634;BME280;32048;49.902;22.508;2023-02-23T00:48:54;99001.75;;;-3.15;100.00
37634;BME280;32048;49.902;22.508;2023-02-23T00:51:23;99004.28;;;-3.19;100.00
37634;BME280;32048;49.902;22.508;2023-02-23T00:53:53;99012.00;;;-3.25;100.00
37634;BME280;32048;49.902;22.508;2023-02-23T00:56:21;99005.09;;;-3.29;100.00
37634;BME280;32048;49.902;22.508;2023-02-23T00:58:48;99011.97;;;-3.31;100.00
37634;BME280;32048;49.902;22.508;2023-02-23T01:01:16;99015.41;;;-3.34;100.00
37634;BME280;32048;49.902;22.508;2023-02-23T01:03:44;99016.22;;;-3.38;100.00
37634;BME280;32048;49.902;22.508;2023-02-23T01:06:14;99014.47;;;-3.41;100.00
37634;BME280;32048;49.902;22.508;2023-02-23T01:08:43;99015.28;;;-3.43;100.00
37634;BME280;32048;49.902;22.508;2023-02-23T01:11:12;99013.56;;;-3.46;100.00
37634;BME280;32048;49.902;22.508;2023-02-23T01:13:42;99012.69;;;-3.46;100.00
37634;BME280;32048;49.902;22.508;2023-02-23T01:16:14;99013.56;;;-3.47;100.00
37634;BME280;32048;49.902;22.508;2023-02-23T01:18:42;99018.69;;;-3.49;100.00
37634;BME280;32048;49.902;22.508;2023-02-23T01:21:21;99007.47;;;-3.54;100.00
37634;BME280;32048;49.902;22.508;2023-02-23T01:23:52;99013.47;;;-3.58;100.00
37634;BME280;32048;49.902;22.508;2023-02-23T01:26:27;99007.41;;;-3.62;100.00
37634;BME280;32048;49.902;22.508;2023-02-23T01:29:00;99003.06;;;-3.66;100.00
37634;BME280;32048;49.902;22.508;2023-02-23T01:31:28;99001.34;;;-3.64;100.00
37634;BME280;32048;49.902;22.508;2023-02-23T01:33:58;98997.94;;;-3.63;100.00
37634;BME280;32048;49.902;22.508;2023-02-23T01:36:26;98998.78;;;-3.64;100.00
37634;BME280;32048;49.902;22.508;2023-02-23T01:38:54;99002.19;;;-3.68;100.00
37634;BME280;32048;49.902;22.508;2023-02-23T01:41:24;98998.75;;;-3.70;100.00
37634;BME280;32048;49.902;22.508;2023-02-23T01:46:47;98996.97;;;-3.72;100.00
37634;BME280;32048;49.902;22.508;2023-02-23T01:49:19;98992.69;;;-3.72;100.00
37634;BME280;32048;49.902;22.508;2023-02-23T01:51:59;98998.75;;;-3.70;100.00
37634;BME280;32048;49.902;22.508;2023-02-23T01:54:32;98998.69;;;-3.74;100.00
37634;BME280;32048;49.902;22.508;2023-02-23T01:57:03;99006.41;;;-3.74;100.00
37634;BME280;32048;49.902;22.508;2023-02-23T01:59:38;98996.97;;;-3.74;100.00
37634;BME280;32048;49.902;22.508;2023-02-23T02:02:07;98996.97;;;-3.72;100.00
37634;BME280;32048;49.902;22.508;2023-02-23T02:04:37;98993.56;;;-3.71;100.00
37634;BME280;32048;49.902;22.508;2023-02-23T02:07:19;98996.13;;;-3.73;100.00
37634;BME280;32048;49.902;22.508;2023-02-23T02:09:51;99001.25;;;-3.76;100.00
37634;BME280;32048;49.902;22.508;2023-02-23T02:12:49;98995.16;;;-3.81;100.00
37634;BME280;32048;49.902;22.508;2023-02-23T02:15:18;98991.75;;;-3.83;100.00
37634;BME280;32048;49.902;22.508;2023-02-23T02:18:18;98986.53;;;-3.86;100.00
37634;BME280;32048;49.902;22.508;2023-02-23T02:26:34;98986.50;;;-3.89;100.00
37634;BME280;32048;49.902;22.508;2023-02-23T02:32:36;98991.63;;;-3.94;100.00
37634;BME280;32048;49.902;22.508;2023-02-23T02:35:21;98999.31;;;-3.97;100.00
37634;BME280;32048;49.902;22.508;2023-02-23T02:43:25;98983.88;;;-3.92;100.00
37634;BME280;32048;49.902;22.508;2023-02-23T02:46:12;98980.50;;;-3.87;100.00
37634;BME280;32048;49.902;22.508;2023-02-23T02:48:48;98983.97;;;-3.85;100.00
37634;BME280;32048;49.902;22.508;2023-02-23T02:51:34;98990.00;;;-3.84;100.00
37634;BME280;32048;49.902;22.508;2023-02-23T02:54:14;98989.97;;;-3.87;100.00
37634;BME280;32048;49.902;22.508;2023-02-23T02:56:48;99002.03;;;-3.88;100.00
37634;BME280;32048;49.902;22.508;2023-02-23T02:59:18;98992.56;;;-3.87;100.00
37634;BME280;32048;49.902;22.508;2023-02-23T03:02:05;98999.44;;;-3.86;100.00
37634;BME280;32048;49.902;22.508;2023-02-23T03:04:51;98995.13;;;-3.86;100.00
37634;BME280;32048;49.902;22.508;2023-02-23T03:07:47;98996.91;;;-3.82;100.00
37634;BME280;32048;49.902;22.508;2023-02-23T03:11:04;99003.84;;;-3.74;100.00
37634;BME280;32048;49.902;22.508;2023-02-23T03:14:12;98993.50;;;-3.74;100.00
37634;BME280;32048;49.902;22.508;2023-02-23T03:17:03;98997.78;;;-3.80;100.00
37634;BME280;32048;49.902;22.508;2023-02-23T03:19:57;99000.34;;;-3.83;100.00
37634;BME280;32048;49.902;22.508;2023-02-23T03:22:52;98990.88;;;-3.85;100.00
37634;BME280;32048;49.902;22.508;2023-02-23T03:32:03;98997.06;;;-3.65;100.00
37634;BME280;32048;49.902;22.508;2023-02-23T03:35:04;98999.72;;;-3.56;100.00
37634;BME280;32048;49.902;22.508;2023-02-23T03:37:59;98999.81;;;-3.43;100.00
37634;BME280;32048;49.902;22.508;2023-02-23T03:40:48;98995.59;;;-3.30;100.00
37634;BME280;32048;49.902;22.508;2023-02-23T03:43:40;98990.50;;;-3.24;100.00
37634;BME280;32048;49.902;22.508;2023-02-23T03:46:30;98993.13;;;-3.18;100.00
37634;BME280;32048;49.902;22.508;2023-02-23T03:49:18;98991.47;;;-3.07;100.00
37634;BME280;32048;49.902;22.508;2023-02-23T03:52:10;98998.44;;;-2.95;100.00
37634;BME280;32048;49.902;22.508;2023-02-23T03:55:03;98988.16;;;-2.83;100.00
37634;BME280;32048;49.902;22.508;2023-02-23T03:57:51;98992.53;;;-2.71;100.00
37634;BME280;32048;49.902;22.508;2023-02-23T04:00:44;98986.53;;;-2.61;100.00
37634;BME280;32048;49.902;22.508;2023-02-23T04:03:33;98990.03;;;-2.54;100.00
37634;BME280;32048;49.902;22.508;2023-02-23T04:06:23;98990.91;;;-2.51;100.00
37634;BME280;32048;49.902;22.508;2023-02-23T04:09:11;98986.63;;;-2.48;100.00
37634;BME280;32048;49.902;22.508;2023-02-23T04:12:13;98987.47;;;-2.43;100.00
37634;BME280;32048;49.902;22.508;2023-02-23T04:17:33;98993.56;;;-2.35;100.00
37634;BME280;32048;49.902;22.508;2023-02-23T04:20:01;98992.69;;;-2.33;100.00
37634;BME280;32048;49.902;22.508;2023-02-23T04:22:29;98998.75;;;-2.31;100.00
37634;BME280;32048;49.902;22.508;2023-02-23T04:24:56;98994.44;;;-2.28;100.00
37634;BME280;32048;49.902;22.508;2023-02-23T04:27:23;99001.31;;;-2.29;100.00
37634;BME280;32048;49.902;22.508;2023-02-23T04:29:50;98991.84;;;-2.30;100.00
37634;BME280;32048;49.902;22.508;2023-02-23T04:32:18;98993.56;;;-2.31;100.00
37634;BME280;32048;49.902;22.508;2023-02-23T04:34:46;98996.13;;;-2.34;100.00
37634;BME280;32048;49.902;22.508;2023-02-23T04:37:14;98986.66;;;-2.30;100.00
37634;BME280;32048;49.902;22.508;2023-02-23T04:39:41;98987.53;;;-2.28;100.00
37634;BME280;32048;49.902;22.508;2023-02-23T04:42:15;98984.09;;;-2.25;100.00
37634;BME280;32048;49.902;22.508;2023-02-23T04:44:42;98979.81;;;-2.22;100.00
37634;BME280;32048;49.902;22.508;2023-02-23T04:47:11;98990.16;;;-2.16;100.00
37634;BME280;32048;49.902;22.508;2023-02-23T04:49:39;98985.00;;;-2.10;100.00
37634;BME280;32048;49.902;22.508;2023-02-23T04:52:06;98981.56;;;-2.05;100.00
37634;BME280;32048;49.902;22.508;2023-02-23T04:54:37;98979.00;;;-1.99;100.00
37634;BME280;32048;49.902;22.508;2023-02-23T04:57:05;98977.25;;;-1.96;100.00
37634;BME280;32048;49.902;22.508;2023-02-23T04:59:32;98985.03;;;-1.94;100.00
37634;BME280;32048;49.902;22.508;2023-02-23T05:02:00;98985.91;;;-1.92;100.00
37634;BME280;32048;49.902;22.508;2023-02-23T05:04:28;98984.16;;;-1.89;100.00
37634;BME280;32048;49.902;22.508;2023-02-23T05:06:55;98976.41;;;-1.87;100.00
37634;BME280;32048;49.902;22.508;2023-02-23T05:09:22;98983.31;;;-1.80;100.00
37634;BME280;32048;49.902;22.508;2023-02-23T05:11:49;98984.22;;;-1.76;100.00
37634;BME280;32048;49.902;22.508;2023-02-23T05:14:16;98987.66;;;-1.71;100.00
37634;BME280;32048;49.902;22.508;2023-02-23T05:16:43;98991.97;;;-1.62;100.00
37634;BME280;32048;49.902;22.508;2023-02-23T05:19:10;98991.13;;;-1.57;100.00
37634;BME280;32048;49.902;22.508;2023-02-23T05:21:38;98990.25;;;-1.48;100.00
37634;BME280;32048;49.902;22.508;2023-02-23T05:24:05;98994.59;;;-1.41;100.00
37634;BME280;32048;49.902;22.508;2023-02-23T05:26:32;98994.56;;;-1.33;100.00
37634;BME280;32048;49.902;22.508;2023-02-23T05:28:59;98994.59;;;-1.32;100.00
37634;BME280;32048;49.902;22.508;2023-02-23T05:31:27;98998.00;;;-1.28;100.00
37634;BME280;32048;49.902;22.508;2023-02-23T05:33:54;98997.16;;;-1.22;100.00
37634;BME280;32048;49.902;22.508;2023-02-23T05:36:21;99003.19;;;-1.11;100.00
37634;BME280;32048;49.902;22.508;2023-02-23T05:38:49;99010.09;;;-1.06;100.00
37634;BME280;32048;49.902;22.508;2023-02-23T05:41:19;99012.69;;;-0.98;100.00
37634;BME280;32048;49.902;22.508;2023-02-23T05:43:48;99026.50;;;-0.93;100.00
37634;BME280;32048;49.902;22.508;2023-02-23T05:46:20;99017.88;;;-0.92;100.00
37634;BME280;32048;49.902;22.508;2023-02-23T05:48:48;99024.75;;;-0.83;100.00
37634;BME280;32048;49.902;22.508;2023-02-23T05:51:16;99011.78;;;-0.77;100.00
37634;BME280;32048;49.902;22.508;2023-02-23T05:53:44;99023.00;;;-0.75;100.00
37634;BME280;32048;49.902;22.508;2023-02-23T05:56:14;99020.41;;;-0.73;100.00
37634;BME280;32048;49.902;22.508;2023-02-23T05:58:47;99022.13;;;-0.68;100.00
37634;BME280;32048;49.902;22.508;2023-02-23T06:01:15;99026.44;;;-0.70;100.00
37634;BME280;32048;49.902;22.508;2023-02-23T06:03:43;99031.63;;;-0.65;100.00
37634;BME280;32048;49.902;22.508;2023-02-23T06:06:11;99035.09;;;-0.60;100.00
37634;BME280;32048;49.902;22.508;2023-02-23T06:08:39;99031.63;;;-0.60;100.00
37634;BME280;32048;49.902;22.508;2023-02-23T06:11:07;99028.16;;;-0.58;100.00
37634;BME280;32048;49.902;22.508;2023-02-23T06:13:34;99024.69;;;-0.49;100.00
37634;BME280;32048;49.902;22.508;2023-02-23T06:16:02;99035.03;;;-0.46;100.00
37634;BME280;32048;49.902;22.508;2023-02-23T06:18:30;99033.31;;;-0.43;100.00
37634;BME280;32048;49.902;22.508;2023-02-23T06:20:58;99046.25;;;-0.36;100.00
37634;BME280;32048;49.902;22.508;2023-02-23T06:23:27;99032.41;;;-0.37;100.00
37634;BME280;32048;49.902;22.508;2023-02-23T06:25:55;99035.88;;;-0.35;100.00
37634;BME280;32048;49.902;22.508;2023-02-23T06:28:24;99031.50;;;-0.30;100.00
37634;BME280;32048;49.902;22.508;2023-02-23T06:30:52;99036.72;;;-0.31;100.00
37634;BME280;32048;49.902;22.508;2023-02-23T06:33:19;99039.31;;;-0.28;100.00
37634;BME280;32048;49.902;22.508;2023-02-23T06:35:46;99047.94;;;-0.26;100.00
37634;BME280;32048;49.902;22.508;2023-02-23T06:38:13;99039.28;;;-0.25;100.00
37634;BME280;32048;49.902;22.508;2023-02-23T06:40:40;99051.41;;;-0.24;100.00
37634;BME280;32048;49.902;22.508;2023-02-23T06:43:09;99042.75;;;-0.20;100.00
37634;BME280;32048;49.902;22.508;2023-02-23T06:45:40;99046.22;;;-0.24;100.00
37634;BME280;32048;49.902;22.508;2023-02-23T06:48:07;99046.22;;;-0.24;100.00
37634;BME280;32048;49.902;22.508;2023-02-23T06:50:35;99034.06;;;-0.19;100.00
37634;BME280;32048;49.902;22.508;2023-02-23T06:53:02;99040.97;;;-0.15;100.00
37634;BME280;32048;49.902;22.508;2023-02-23T06:55:29;99031.41;;;-0.05;100.00
37634;BME280;32048;49.902;22.508;2023-02-23T06:57:56;99034.88;;;0.00;100.00
37634;BME280;32048;49.902;22.508;2023-02-23T07:00:24;99040.00;;;0.06;100.00
37634;BME280;32048;49.902;22.508;2023-02-23T07:02:51;99050.34;;;0.15;100.00
37634;BME280;32048;49.902;22.508;2023-02-23T07:05:18;99042.56;;;0.18;100.00
37634;BME280;32048;49.902;22.508;2023-02-23T07:07:46;99038.22;;;0.20;100.00
37634;BME280;32048;49.902;22.508;2023-02-23T07:10:14;99042.53;;;0.22;100.00
37634;BME280;32048;49.902;22.508;2023-02-23T07:12:41;99035.59;;;0.25;100.00
37634;BME280;32048;49.902;22.508;2023-02-23T07:15:09;99041.63;;;0.27;100.00
37634;BME280;32048;49.902;22.508;2023-02-23T07:17:36;99047.69;;;0.29;100.00
37634;BME280;32048;49.902;22.508;2023-02-23T07:20:04;99038.19;;;0.25;100.00
37634;BME280;32048;49.902;22.508;2023-02-23T07:22:31;99042.50;;;0.26;100.00
37634;BME280;32048;49.902;22.508;2023-02-23T07:25:00;99028.63;;;0.30;100.00
37634;BME280;32048;49.902;22.508;2023-02-23T07:27:27;99034.63;;;0.35;100.00
37634;BME280;32048;49.902;22.508;2023-02-23T07:29:54;99034.63;;;0.35;100.00
37634;BME280;32048;49.902;22.508;2023-02-23T07:32:21;99032.00;;;0.41;100.00
37634;BME280;32048;49.902;22.508;2023-02-23T07:34:48;99027.63;;;0.48;100.00
37634;BME280;32048;49.902;22.508;2023-02-23T07:37:19;99038.03;;;0.48;100.00
37634;BME280;32048;49.902;22.508;2023-02-23T07:39:46;99029.34;;;0.52;100.00
37634;BME280;32048;49.902;22.508;2023-02-23T07:42:13;99019.78;;;0.56;100.00
37634;BME280;32048;49.902;22.508;2023-02-23T07:44:40;99023.22;;;0.58;100.00
37634;BME280;32048;49.902;22.508;2023-02-23T07:47:07;99028.41;;;0.61;100.00
37634;BME280;32048;49.902;22.508;2023-02-23T07:49:34;99018.84;;;0.68;100.00
37634;BME280;32048;49.902;22.508;2023-02-23T07:52:02;99017.91;;;0.72;100.00
37634;BME280;32048;49.902;22.508;2023-02-23T07:54:29;99013.66;;;0.65;100.00
37634;BME280;32048;49.902;22.508;2023-02-23T07:56:56;99021.47;;;0.60;100.00
37634;BME280;32048;49.902;22.508;2023-02-23T07:59:23;99022.34;;;0.60;100.00
37634;BME280;32048;49.902;22.508;2023-02-23T08:01:50;99019.69;;;0.70;100.00
37634;BME280;32048;49.902;22.508;2023-02-23T08:04:18;99036.03;;;0.82;100.00
37634;BME280;32048;49.902;22.508;2023-02-23T08:06:45;99019.56;;;0.82;100.00
37634;BME280;32048;49.902;22.508;2023-02-23T08:09:13;99029.13;;;0.78;100.00
37634;BME280;32048;49.902;22.508;2023-02-23T08:11:40;99029.88;;;0.91;100.00
37634;BME280;32048;49.902;22.508;2023-02-23T08:14:07;99024.59;;;1.00;100.00
37634;BME280;32048;49.902;22.508;2023-02-23T08:16:36;99020.25;;;1.06;100.00
37634;BME280;32048;49.902;22.508;2023-02-23T08:19:03;99027.97;;;1.12;100.00
37634;BME280;32048;49.902;22.508;2023-02-23T08:21:30;99028.06;;;1.06;100.00
37634;BME280;32048;49.902;22.508;2023-02-23T08:23:57;99028.91;;;1.06;100.00
37634;BME280;32048;49.902;22.508;2023-02-23T08:26:24;99021.00;;;1.17;100.00
37634;BME280;32048;49.902;22.508;2023-02-23T08:28:53;99029.53;;;1.30;100.00
37634;BME280;32048;49.902;22.508;2023-02-23T08:31:20;99034.69;;;1.34;100.00
37634;BME280;32048;49.902;22.508;2023-02-23T08:33:50;99023.31;;;1.43;100.00
37634;BME280;32048;49.902;22.508;2023-02-23T08:36:18;99025.84;;;1.51;100.00
37634;BME280;32048;49.902;22.508;2023-02-23T08:38:47;99025.91;;;1.44;100.00
37634;BME280;32048;49.902;22.508;2023-02-23T08:41:14;99022.34;;;1.53;100.00
37634;BME280;32048;49.902;22.508;2023-02-23T08:43:42;99031.88;;;1.54;100.00
37634;BME280;32048;49.902;22.508;2023-02-23T08:46:10;99004.97;;;1.55;100.00
37634;BME280;32048;49.902;22.508;2023-02-23T08:48:37;99023.94;;;1.65;100.00
37634;BME280;32048;49.902;22.508;2023-02-23T08:51:06;99030.09;;;1.59;100.00
37634;BME280;32048;49.902;22.508;2023-02-23T08:53:34;99019.66;;;1.61;100.00
37634;BME280;32048;49.902;22.508;2023-02-23T08:56:04;99025.69;;;1.63;100.00
37634;BME280;32048;49.902;22.508;2023-02-23T08:58:34;99020.47;;;1.64;100.00
37634;BME280;32048;49.902;22.508;2023-02-23T09:01:02;99029.94;;;1.73;100.00
37634;BME280;32048;49.902;22.508;2023-02-23T09:03:29;99029.81;;;1.81;100.00
37634;BME280;32048;49.902;22.508;2023-02-23T09:05:58;99030.59;;;1.89;100.00
37634;BME280;32048;49.902;22.508;2023-02-23T09:08:30;99030.50;;;1.97;100.00
37634;BME280;32048;49.902;22.508;2023-02-23T09:10:57;99017.44;;;2.00;100.00
37634;BME280;32048;49.902;22.508;2023-02-23T09:13:24;99013.94;;;2.02;100.00
37634;BME280;32048;49.902;22.508;2023-02-23T09:15:51;99033.00;;;2.04;100.00
37634;BME280;32048;49.902;22.508;2023-02-23T09:18:20;99022.59;;;2.04;100.00
37634;BME280;32048;49.902;22.508;2023-02-23T09:20:49;99039.16;;;1.97;100.00
37634;BME280;32048;49.902;22.508;2023-02-23T09:23:17;99022.81;;;1.86;100.00
37634;BME280;32048;49.902;22.508;2023-02-23T09:25:44;99023.63;;;1.91;100.00
37634;BME280;32048;49.902;22.508;2023-02-23T09:28:14;99012.25;;;1.97;100.00
37634;BME280;32048;49.902;22.508;2023-02-23T09:30:42;99032.31;;;1.92;100.00
37634;BME280;32048;49.902;22.508;2023-02-23T09:33:10;99018.59;;;1.77;100.00
37634;BME280;32048;49.902;22.508;2023-02-23T09:35:38;99032.38;;;1.85;100.00
37634;BME280;32048;49.902;22.508;2023-02-23T09:38:06;99014.91;;;1.94;100.00
37634;BME280;32048;49.902;22.508;2023-02-23T09:48:19;99014.53;;;2.23;100.00
37634;BME280;32048;49.902;22.508;2023-02-23T09:50:49;99010.16;;;2.23;100.00
37634;BME280;32048;49.902;22.508;2023-02-23T09:55:54;99007.50;;;2.28;100.00
37634;BME280;32048;49.902;22.508;2023-02-23T09:58:27;99004.94;;;2.23;100.00
37634;BME280;32048;49.902;22.508;2023-02-23T10:07:11;99014.16;;;2.49;100.00
37634;BME280;32048;49.902;22.508;2023-02-23T10:20:55;98998.69;;;3.39;97.25
37634;BME280;32048;49.902;22.508;2023-02-23T10:23:30;98998.50;;;3.48;97.79
37634;BME280;32048;49.902;22.508;2023-02-23T10:25:59;98989.47;;;3.65;95.71
37634;BME280;32048;49.902;22.508;2023-02-23T10:28:27;98992.19;;;3.60;93.19
37634;BME280;32048;49.902;22.508;2023-02-23T10:30:59;98985.44;;;3.50;94.91
37634;BME280;32048;49.902;22.508;2023-02-23T10:33:36;98993.69;;;4.12;94.71
37634;BME280;32048;49.902;22.508;2023-02-23T10:36:18;98974.38;;;4.57;88.85
37634;BME280;32048;49.902;22.508;2023-02-23T10:38:49;98958.56;;;4.62;88.40
37634;BME280;32048;49.902;22.508;2023-02-23T10:41:17;98978.94;;;4.85;88.01
37634;BME280;32048;49.902;22.508;2023-02-23T10:43:45;98969.41;;;5.15;85.29
37634;BME280;32048;49.902;22.508;2023-02-23T10:46:19;98966.91;;;5.43;83.00
37634;BME280;32048;49.902;22.508;2023-02-23T10:48:50;98964.63;;;5.31;83.42
37634;BME280;32048;49.902;22.508;2023-02-23T10:51:28;98965.06;;;5.47;83.51
37634;BME280;32048;49.902;22.508;2023-02-23T10:53:56;98955.41;;;5.78;83.25
37634;BME280;32048;49.902;22.508;2023-02-23T10:56:31;98960.19;;;6.52;80.87
37634;BME280;32048;49.902;22.508;2023-02-23T10:59:00;98977.44;;;7.12;74.34
37634;BME280;32048;49.902;22.508;2023-02-23T11:01:38;98950.53;;;7.05;72.95
37634;BME280;32048;49.902;22.508;2023-02-23T11:04:31;98954.00;;;7.06;71.71
37634;BME280;32048;49.902;22.508;2023-02-23T11:07:21;98950.19;;;7.40;76.46
37634;BME280;32048;49.902;22.508;2023-02-23T11:09:50;98953.59;;;7.18;70.33
37634;BME280;32048;49.902;22.508;2023-02-23T11:12:22;98949.47;;;7.11;69.53
37634;BME280;32048;49.902;22.508;2023-02-23T11:14:53;98941.13;;;7.00;71.26
37634;BME280;32048;49.902;22.508;2023-02-23T11:19:57;98919.66;;;7.12;71.17
37634;BME280;32048;49.902;22.508;2023-02-23T11:22:24;98923.16;;;7.61;71.67
37634;BME280;32048;49.902;22.508;2023-02-23T11:24:52;98923.41;;;7.77;66.29
37634;BME280;32048;49.902;22.508;2023-02-23T11:27:23;98924.56;;;7.70;66.85
37634;BME280;32048;49.902;22.508;2023-02-23T11:29:54;98918.56;;;7.90;66.87
37634;BME280;32048;49.902;22.508;2023-02-23T11:32:28;98915.16;;;8.10;63.72
37634;BME280;32048;49.902;22.508;2023-02-23T11:37:38;98906.19;;;8.36;66.85
37634;BME280;32048;49.902;22.508;2023-02-23T11:40:19;98897.22;;;9.05;62.91
37634;BME280;32048;49.902;22.508;2023-02-23T11:43:16;98902.63;;;9.22;61.43
37634;BME280;32048;49.902;22.508;2023-02-23T11:45:46;98906.16;;;9.21;59.81
37634;BME280;32048;49.902;22.508;2023-02-23T11:48:20;98902.94;;;9.14;59.22
37634;BME280;32048;49.902;22.508;2023-02-23T11:50:48;98892.69;;;9.08;62.17
37634;BME280;32048;49.902;22.508;2023-02-23T11:53:19;98890.72;;;9.72;61.79
37634;BME280;32048;49.902;22.508;2023-02-23T11:55:52;98886.53;;;10.77;55.63
37634;BME280;32048;49.902;22.508;2023-02-23T11:58:26;98889.63;;;11.20;50.47
37634;BME280;32048;49.902;22.508;2023-02-23T12:01:06;98885.91;;;10.54;52.11
37634;BME280;32048;49.902;22.508;2023-02-23T12:03:48;98875.66;;;10.12;53.30
37634;BME280;32048;49.902;22.508;2023-02-23T12:09:04;98866.19;;;10.25;55.28
37634;BME280;32048;49.902;22.508;2023-02-23T12:11:42;98874.47;;;10.36;54.01
37634;BME280;32048;49.902;22.508;2023-02-23T12:14:23;98871.44;;;10.44;51.66
37634;BME280;32048;49.902;22.508;2023-02-23T12:16:57;98856.66;;;10.23;53.17
37634;BME280;32048;49.902;22.508;2023-02-23T12:19:28;98859.53;;;9.99;54.08
37634;BME280;32048;49.902;22.508;2023-02-23T12:22:11;98861.78;;;9.89;55.31
37634;BME280;32048;49.902;22.508;2023-02-23T12:35:41;98836.53;;;8.67;58.53
37634;BME280;32048;49.902;22.508;2023-02-23T12:41:00;98836.94;;;8.36;60.66
37634;BME280;32048;49.902;22.508;2023-02-23T12:43:53;98835.53;;;8.27;64.95
37634;BME280;32048;49.902;22.508;2023-02-23T12:46:28;98828.69;;;8.45;66.12
37634;BME280;32048;49.902;22.508;2023-02-23T12:52:00;98804.03;;;8.68;66.37
37634;BME280;32048;49.902;22.508;2023-02-23T12:54:28;98811.34;;;9.01;62.57
37634;BME280;32048;49.902;22.508;2023-02-23T13:10:19;98795.06;;;8.09;66.90
37634;BME280;32048;49.902;22.508;2023-02-23T13:15:43;98784.66;;;7.63;67.65
37634;BME280;32048;49.902;22.508;2023-02-23T13:18:25;98782.44;;;7.53;68.27
37634;BME280;32048;49.902;22.508;2023-02-23T13:21:27;98775.22;;;7.36;68.97
37634;BME280;32048;49.902;22.508;2023-02-23T13:24:16;98772.16;;;7.46;67.52
37634;BME280;32048;49.902;22.508;2023-02-23T13:32:08;98760.44;;;7.55;66.15
37634;BME280;32048;49.902;22.508;2023-02-23T13:34:42;98767.47;;;7.77;67.10
37634;BME280;32048;49.902;22.508;2023-02-23T13:37:11;98761.22;;;8.01;66.52
37634;BME280;32048;49.902;22.508;2023-02-23T13:39:52;98765.25;;;8.10;63.97
37634;BME280;32048;49.902;22.508;2023-02-23T13:53:44;98750.31;;;8.10;63.94
37634;BME280;32048;49.902;22.508;2023-02-23T13:56:18;98758.59;;;8.01;63.83
37634;BME280;32048;49.902;22.508;2023-02-23T13:58:51;98751.13;;;7.90;66.63
37634;BME280;32048;49.902;22.508;2023-02-23T14:01:21;98752.75;;;8.15;64.34
37634;BME280;32048;49.902;22.508;2023-02-23T14:03:53;98750.47;;;8.28;63.95
37634;BME280;32048;49.902;22.508;2023-02-23T14:06:23;98745.59;;;8.19;63.69
37634;BME280;32048;49.902;22.508;2023-02-23T14:14:39;98747.94;;;7.82;66.45
37634;BME280;32048;49.902;22.508;2023-02-23T14:28:36;98737.44;;;6.93;72.79
37634;BME280;32048;49.902;22.508;2023-02-23T14:44:13;98725.44;;;6.13;79.53
37634;BME280;32048;49.902;22.508;2023-02-23T14:49:42;98716.59;;;5.89;81.61
37634;BME280;32048;49.902;22.508;2023-02-23T14:52:22;98722.16;;;5.80;82.58
37634;BME280;32048;49.902;22.508;2023-02-23T14:54:51;98713.66;;;5.73;82.29
37634;BME280;32048;49.902;22.508;2023-02-23T14:57:23;98722.78;;;5.61;83.60
37634;BME280;32048;49.902;22.508;2023-02-23T14:59:56;98708.16;;;5.54;83.96
37634;BME280;32048;49.902;22.508;2023-02-23T15:02:27;98704.81;;;5.49;85.06
37634;BME280;32048;49.902;22.508;2023-02-23T15:04:56;98704.06;;;5.46;85.53
37634;BME280;32048;49.902;22.508;2023-02-23T15:07:39;98703.41;;;5.39;85.92
37634;BME280;32048;49.902;22.508;2023-02-23T15:10:35;98693.97;;;5.33;86.01
37634;BME280;32048;49.902;22.508;2023-02-23T15:13:36;98689.84;;;5.26;86.19
37634;BME280;32048;49.902;22.508;2023-02-23T15:16:10;98687.22;;;5.26;86.77
37634;BME280;32048;49.902;22.508;2023-02-23T15:18:41;98683.88;;;5.23;86.96
37634;BME280;32048;49.902;22.508;2023-02-23T15:21:15;98688.59;;;5.11;87.60
37634;BME280;32048;49.902;22.508;2023-02-23T15:23:46;98684.34;;;5.07;88.22
37634;BME280;32048;49.902;22.508;2023-02-23T15:26:29;98683.59;;;5.02;88.93
37634;BME280;32048;49.902;22.508;2023-02-23T15:29:11;98679.41;;;4.98;89.31
37634;BME280;32048;49.902;22.508;2023-02-23T15:31:45;98678.63;;;4.94;89.60
37634;BME280;32048;49.902;22.508;2023-02-23T15:34:21;98678.78;;;4.88;89.88
37634;BME280;32048;49.902;22.508;2023-02-23T15:39:37;98678.34;;;4.75;90.68
37634;BME280;32048;49.902;22.508;2023-02-23T15:42:11;98668.84;;;4.71;90.94
37634;BME280;32048;49.902;22.508;2023-02-23T15:44:39;98666.28;;;4.70;90.96